KBGM/BGM METAR and TAF weather

Enter ICAO airport designator
Station Type Date Time Source
KBGM METAR 2018/12/12 23:53 UTC NOAA

KBGM 122353Z 15003KT 9SM OVC023 M03/M06 A3010 RMK AO2 SLP214 T10281061 11011 21033 53006


Station Type Date Time Source
KBGM Decoded METAR 2018/12/12 23:53 UTC NOAA

BINGHAMTON REGIONAL AIRPORT, NY, United States (KBGM) 42-12N 75-59W 492M
Dec 12, 2018 - 06:53 PM EST / 2018.12.12 2353 UTC
Wind: from the SSE (150 degrees) at 3 MPH (3 KT):0
Visibility: 9 mile(s):0
Sky conditions: overcast
Temperature: 27.0 F (-2.8 C)
Dew Point: 21.0 F (-6.1 C)
Relative Humidity: 77%
Pressure (altimeter): 30.1 in. Hg (1019 hPa)
Pressure tendency: 0.02 inches (0.6 hPa) higher than three hours ago
ob: KBGM 122353Z 15003KT 9SM OVC023 M03/M06 A3010 RMK AO2 SLP214 T10281061 11011 21033 53006
cycle: 0

Station Type Date Time Source
KBGM TAF 2018/12/12 18:22 UTC NOAA

TAF KBGM 121720Z 1218/1318 33004KT P6SM OVC025
FM122200 13005KT P6SM OVC060
FM130900 15010KT 3SM -SN OVC015
FM131700 16009KT P6SM OVC015


Example: see airport list